sensor_id;sensor_type;location;lat;lon;timestamp;pressure;altitude;pressure_sealevel;temperature;humidity
51530;BME280;37613;51.788;21.582;2024-01-15T00:04:00;98029.05;;;-0.31;100.00
51530;BME280;37613;51.788;21.582;2024-01-15T00:08:03;98023.87;;;-0.30;100.00
51530;BME280;37613;51.788;21.582;2024-01-15T00:12:05;98012.70;;;-0.29;100.00
51530;BME280;37613;51.788;21.582;2024-01-15T00:16:07;98013.40;;;-0.28;100.00
51530;BME280;37613;51.788;21.582;2024-01-15T00:20:10;98007.11;;;-0.27;100.00
51530;BME280;37613;51.788;21.582;2024-01-15T00:24:12;97996.23;;;-0.28;100.00
51530;BME280;37613;51.788;21.582;2024-01-15T00:28:14;97986.30;;;-0.29;100.00
51530;BME280;37613;51.788;21.582;2024-01-15T00:32:17;97983.17;;;-0.31;100.00
51530;BME280;37613;51.788;21.582;2024-01-15T00:36:19;97978.05;;;-0.31;100.00
51530;BME280;37613;51.788;21.582;2024-01-15T00:40:21;97970.58;;;-0.32;100.00
51530;BME280;37613;51.788;21.582;2024-01-15T00:44:23;97965.60;;;-0.33;100.00
51530;BME280;37613;51.788;21.582;2024-01-15T00:48:26;97962.73;;;-0.33;100.00
51530;BME280;37613;51.788;21.582;2024-01-15T00:52:28;97960.40;;;-0.34;100.00
51530;BME280;37613;51.788;21.582;2024-01-15T00:56:29;97954.34;;;-0.35;100.00
51530;BME280;37613;51.788;21.582;2024-01-15T01:00:31;97950.14;;;-0.36;100.00
51530;BME280;37613;51.788;21.582;2024-01-15T01:04:33;97943.46;;;-0.37;100.00
51530;BME280;37613;51.788;21.582;2024-01-15T01:08:35;97942.37;;;-0.37;100.00
51530;BME280;37613;51.788;21.582;2024-01-15T01:12:37;97935.31;;;-0.38;100.00
51530;BME280;37613;51.788;21.582;2024-01-15T01:16:40;97928.55;;;-0.38;100.00
51530;BME280;37613;51.788;21.582;2024-01-15T01:20:42;97919.46;;;-0.38;100.00
51530;BME280;37613;51.788;21.582;2024-01-15T01:24:44;97913.24;;;-0.38;100.00
51530;BME280;37613;51.788;21.582;2024-01-15T01:28:47;97905.34;;;-0.39;100.00
51530;BME280;37613;51.788;21.582;2024-01-15T01:32:50;97891.42;;;-0.39;100.00
51530;BME280;37613;51.788;21.582;2024-01-15T01:36:52;97886.98;;;-0.41;100.00
51530;BME280;37613;51.788;21.582;2024-01-15T01:40:54;97883.41;;;-0.41;100.00
51530;BME280;37613;51.788;21.582;2024-01-15T01:44:56;97881.85;;;-0.42;100.00
51530;BME280;37613;51.788;21.582;2024-01-15T01:48:58;97876.02;;;-0.45;100.00
51530;BME280;37613;51.788;21.582;2024-01-15T01:53:03;97874.05;;;-0.47;100.00
51530;BME280;37613;51.788;21.582;2024-01-15T01:57:07;97872.73;;;-0.49;100.00
51530;BME280;37613;51.788;21.582;2024-01-15T02:01:10;97874.20;;;-0.50;100.00
51530;BME280;37613;51.788;21.582;2024-01-15T02:05:17;97872.26;;;-0.50;100.00
51530;BME280;37613;51.788;21.582;2024-01-15T02:09:20;97868.14;;;-0.51;100.00
51530;BME280;37613;51.788;21.582;2024-01-15T02:13:22;97866.55;;;-0.54;100.00
51530;BME280;37613;51.788;21.582;2024-01-15T02:17:25;97860.95;;;-0.56;100.00
51530;BME280;37613;51.788;21.582;2024-01-15T02:21:27;97858.09;;;-0.56;100.00
51530;BME280;37613;51.788;21.582;2024-01-15T02:25:30;97847.38;;;-0.57;100.00
51530;BME280;37613;51.788;21.582;2024-01-15T02:29:32;97841.16;;;-0.57;100.00
51530;BME280;37613;51.788;21.582;2024-01-15T02:33:35;97838.98;;;-0.58;100.00
51530;BME280;37613;51.788;21.582;2024-01-15T02:37:37;97833.86;;;-0.59;100.00
51530;BME280;37613;51.788;21.582;2024-01-15T02:41:39;97831.84;;;-0.59;100.00
51530;BME280;37613;51.788;21.582;2024-01-15T02:45:40;97824.63;;;-0.59;100.00
51530;BME280;37613;51.788;21.582;2024-01-15T02:49:42;97824.94;;;-0.59;100.00
51530;BME280;37613;51.788;21.582;2024-01-15T02:53:45;97817.33;;;-0.59;100.00
51530;BME280;37613;51.788;21.582;2024-01-15T02:57:47;97814.38;;;-0.59;100.00
51530;BME280;37613;51.788;21.582;2024-01-15T03:01:49;97810.20;;;-0.59;100.00
51530;BME280;37613;51.788;21.582;2024-01-15T03:05:51;97806.23;;;-0.59;100.00
51530;BME280;37613;51.788;21.582;2024-01-15T03:09:53;97802.75;;;-0.59;100.00
51530;BME280;37613;51.788;21.582;2024-01-15T03:13:55;97801.11;;;-0.58;100.00
51530;BME280;37613;51.788;21.582;2024-01-15T03:17:57;97789.55;;;-0.57;100.00
51530;BME280;37613;51.788;21.582;2024-01-15T03:21:59;97789.09;;;-0.57;100.00
51530;BME280;37613;51.788;21.582;2024-01-15T03:26:02;97776.60;;;-0.57;100.00
51530;BME280;37613;51.788;21.582;2024-01-15T03:30:05;97762.08;;;-0.56;100.00
51530;BME280;37613;51.788;21.582;2024-01-15T03:34:07;97754.86;;;-0.56;100.00
51530;BME280;37613;51.788;21.582;2024-01-15T03:38:09;97744.63;;;-0.57;100.00
51530;BME280;37613;51.788;21.582;2024-01-15T03:42:11;97742.99;;;-0.58;100.00
51530;BME280;37613;51.788;21.582;2024-01-15T03:46:13;97745.01;;;-0.58;100.00
51530;BME280;37613;51.788;21.582;2024-01-15T03:50:15;97739.86;;;-0.62;100.00
51530;BME280;37613;51.788;21.582;2024-01-15T03:54:17;97736.66;;;-0.68;100.00
51530;BME280;37613;51.788;21.582;2024-01-15T03:58:19;97729.49;;;-0.73;100.00
51530;BME280;37613;51.788;21.582;2024-01-15T04:02:21;97722.97;;;-0.75;100.00
51530;BME280;37613;51.788;21.582;2024-01-15T04:06:24;97714.28;;;-0.77;100.00
51530;BME280;37613;51.788;21.582;2024-01-15T04:10:26;97710.69;;;-0.78;100.00
51530;BME280;37613;51.788;21.582;2024-01-15T04:14:28;97697.34;;;-0.79;100.00
51530;BME280;37613;51.788;21.582;2024-01-15T04:18:30;97702.61;;;-0.79;100.00
51530;BME280;37613;51.788;21.582;2024-01-15T04:22:33;97699.52;;;-0.80;100.00
51530;BME280;37613;51.788;21.582;2024-01-15T04:26:35;97695.31;;;-0.81;100.00
51530;BME280;37613;51.788;21.582;2024-01-15T04:30:37;97693.46;;;-0.80;100.00
51530;BME280;37613;51.788;21.582;2024-01-15T04:34:39;97681.82;;;-0.79;100.00
51530;BME280;37613;51.788;21.582;2024-01-15T04:38:41;97673.63;;;-0.76;100.00
51530;BME280;37613;51.788;21.582;2024-01-15T04:42:43;97672.24;;;-0.74;100.00
51530;BME280;37613;51.788;21.582;2024-01-15T04:46:47;97665.10;;;-0.72;100.00
51530;BME280;37613;51.788;21.582;2024-01-15T04:50:49;97660.54;;;-0.70;100.00
51530;BME280;37613;51.788;21.582;2024-01-15T04:54:52;97659.36;;;-0.72;100.00
51530;BME280;37613;51.788;21.582;2024-01-15T04:58:54;97648.48;;;-0.76;100.00
51530;BME280;37613;51.788;21.582;2024-01-15T05:02:56;97645.45;;;-0.78;100.00
51530;BME280;37613;51.788;21.582;2024-01-15T05:06:58;97644.36;;;-0.78;100.00
51530;BME280;37613;51.788;21.582;2024-01-15T05:11:00;97639.19;;;-0.76;100.00
51530;BME280;37613;51.788;21.582;2024-01-15T05:15:03;97638.41;;;-0.73;100.00
51530;BME280;37613;51.788;21.582;2024-01-15T05:19:07;97638.35;;;-0.70;100.00
51530;BME280;37613;51.788;21.582;2024-01-15T05:23:09;97643.48;;;-0.70;100.00
51530;BME280;37613;51.788;21.582;2024-01-15T05:27:11;97642.45;;;-0.71;100.00
51530;BME280;37613;51.788;21.582;2024-01-15T05:31:13;97635.39;;;-0.73;100.00
51530;BME280;37613;51.788;21.582;2024-01-15T05:35:15;97632.27;;;-0.78;100.00
51530;BME280;37613;51.788;21.582;2024-01-15T05:39:17;97627.05;;;-0.81;100.00
51530;BME280;37613;51.788;21.582;2024-01-15T05:43:20;97629.06;;;-0.85;100.00
51530;BME280;37613;51.788;21.582;2024-01-15T05:47:22;97629.35;;;-0.88;100.00
51530;BME280;37613;51.788;21.582;2024-01-15T05:51:24;97634.46;;;-0.91;100.00
51530;BME280;37613;51.788;21.582;2024-01-15T05:55:26;97634.31;;;-0.93;100.00
51530;BME280;37613;51.788;21.582;2024-01-15T05:59:28;97632.35;;;-0.94;100.00
51530;BME280;37613;51.788;21.582;2024-01-15T06:03:33;97626.45;;;-0.94;100.00
51530;BME280;37613;51.788;21.582;2024-01-15T06:07:35;97620.89;;;-0.93;100.00
51530;BME280;37613;51.788;21.582;2024-01-15T06:11:38;97624.76;;;-0.94;100.00
51530;BME280;37613;51.788;21.582;2024-01-15T06:15:43;97624.59;;;-0.94;100.00
51530;BME280;37613;51.788;21.582;2024-01-15T06:19:45;97619.32;;;-0.96;100.00
51530;BME280;37613;51.788;21.582;2024-01-15T06:23:47;97608.99;;;-0.96;100.00
51530;BME280;37613;51.788;21.582;2024-01-15T06:27:49;97612.87;;;-0.95;100.00
51530;BME280;37613;51.788;21.582;2024-01-15T06:31:51;97613.59;;;-0.94;100.00
51530;BME280;37613;51.788;21.582;2024-01-15T06:35:52;97616.70;;;-0.92;100.00
51530;BME280;37613;51.788;21.582;2024-01-15T06:39:54;97616.00;;;-0.90;100.00
51530;BME280;37613;51.788;21.582;2024-01-15T06:43:56;97607.02;;;-0.88;100.00
51530;BME280;37613;51.788;21.582;2024-01-15T06:47:58;97597.63;;;-0.87;100.00
51530;BME280;37613;51.788;21.582;2024-01-15T06:52:00;97597.95;;;-0.85;100.00
51530;BME280;37613;51.788;21.582;2024-01-15T06:56:02;97598.35;;;-0.83;100.00
51530;BME280;37613;51.788;21.582;2024-01-15T07:00:05;97592.69;;;-0.81;100.00
51530;BME280;37613;51.788;21.582;2024-01-15T07:04:10;97588.83;;;-0.78;100.00
51530;BME280;37613;51.788;21.582;2024-01-15T07:08:12;97592.71;;;-0.76;100.00
51530;BME280;37613;51.788;21.582;2024-01-15T07:12:14;97599.23;;;-0.73;100.00
51530;BME280;37613;51.788;21.582;2024-01-15T07:16:15;97604.05;;;-0.71;100.00
51530;BME280;37613;51.788;21.582;2024-01-15T07:20:17;97611.13;;;-0.69;100.00
51530;BME280;37613;51.788;21.582;2024-01-15T07:24:21;97612.60;;;-0.67;100.00
51530;BME280;37613;51.788;21.582;2024-01-15T07:28:23;97617.33;;;-0.65;100.00
51530;BME280;37613;51.788;21.582;2024-01-15T07:32:25;97616.17;;;-0.65;100.00
51530;BME280;37613;51.788;21.582;2024-01-15T07:36:27;97615.23;;;-0.66;100.00
51530;BME280;37613;51.788;21.582;2024-01-15T07:40:29;97612.13;;;-0.68;100.00
51530;BME280;37613;51.788;21.582;2024-01-15T07:44:31;97607.88;;;-0.68;100.00
51530;BME280;37613;51.788;21.582;2024-01-15T07:48:33;97604.92;;;-0.65;100.00
51530;BME280;37613;51.788;21.582;2024-01-15T07:52:35;97606.80;;;-0.62;100.00
51530;BME280;37613;51.788;21.582;2024-01-15T07:56:54;97607.51;;;-0.60;100.00
51530;BME280;37613;51.788;21.582;2024-01-15T08:00:56;97603.47;;;-0.59;100.00
51530;BME280;37613;51.788;21.582;2024-01-15T08:04:58;97597.50;;;-0.60;100.00
51530;BME280;37613;51.788;21.582;2024-01-15T08:09:00;97598.72;;;-0.63;100.00
51530;BME280;37613;51.788;21.582;2024-01-15T08:13:02;97599.17;;;-0.66;100.00
51530;BME280;37613;51.788;21.582;2024-01-15T08:17:04;97599.56;;;-0.66;100.00
51530;BME280;37613;51.788;21.582;2024-01-15T08:21:07;97595.77;;;-0.66;100.00
51530;BME280;37613;51.788;21.582;2024-01-15T08:25:09;97597.85;;;-0.64;100.00
51530;BME280;37613;51.788;21.582;2024-01-15T08:29:11;97600.96;;;-0.64;100.00
51530;BME280;37613;51.788;21.582;2024-01-15T08:33:13;97598.25;;;-0.63;100.00
51530;BME280;37613;51.788;21.582;2024-01-15T08:37:15;97596.24;;;-0.62;100.00
51530;BME280;37613;51.788;21.582;2024-01-15T08:41:17;97597.41;;;-0.59;100.00
51530;BME280;37613;51.788;21.582;2024-01-15T08:45:19;97598.83;;;-0.54;100.00
51530;BME280;37613;51.788;21.582;2024-01-15T08:49:21;97596.44;;;-0.47;100.00
51530;BME280;37613;51.788;21.582;2024-01-15T08:53:25;97597.61;;;-0.43;100.00
51530;BME280;37613;51.788;21.582;2024-01-15T08:57:27;97602.27;;;-0.45;100.00
51530;BME280;37613;51.788;21.582;2024-01-15T09:01:29;97606.90;;;-0.49;100.00
51530;BME280;37613;51.788;21.582;2024-01-15T09:05:32;97605.66;;;-0.52;100.00
51530;BME280;37613;51.788;21.582;2024-01-15T09:09:34;97606.14;;;-0.46;100.00
51530;BME280;37613;51.788;21.582;2024-01-15T09:13:36;97606.70;;;-0.40;100.00
51530;BME280;37613;51.788;21.582;2024-01-15T09:17:38;97600.27;;;-0.32;100.00
51530;BME280;37613;51.788;21.582;2024-01-15T09:21:40;97602.77;;;-0.29;100.00
51530;BME280;37613;51.788;21.582;2024-01-15T09:25:42;97605.86;;;-0.35;100.00
51530;BME280;37613;51.788;21.582;2024-01-15T09:29:44;97607.31;;;-0.40;100.00
51530;BME280;37613;51.788;21.582;2024-01-15T09:33:47;97608.09;;;-0.40;100.00
51530;BME280;37613;51.788;21.582;2024-01-15T09:37:50;97606.00;;;-0.32;100.00
51530;BME280;37613;51.788;21.582;2024-01-15T09:41:53;97604.87;;;-0.14;100.00
51530;BME280;37613;51.788;21.582;2024-01-15T09:45:56;97600.22;;;-0.06;100.00
51530;BME280;37613;51.788;21.582;2024-01-15T09:49:59;97594.63;;;0.06;100.00
51530;BME280;37613;51.788;21.582;2024-01-15T09:54:01;97593.54;;;0.19;100.00
51530;BME280;37613;51.788;21.582;2024-01-15T09:58:04;97591.04;;;0.39;100.00
51530;BME280;37613;51.788;21.582;2024-01-15T10:02:07;97588.15;;;0.53;100.00
51530;BME280;37613;51.788;21.582;2024-01-15T10:06:09;97590.38;;;0.65;100.00
51530;BME280;37613;51.788;21.582;2024-01-15T10:10:13;97595.00;;;0.83;100.00
51530;BME280;37613;51.788;21.582;2024-01-15T10:14:15;97592.94;;;0.90;100.00
51530;BME280;37613;51.788;21.582;2024-01-15T10:18:17;97593.20;;;0.85;100.00
51530;BME280;37613;51.788;21.582;2024-01-15T10:22:19;97598.73;;;0.76;100.00
51530;BME280;37613;51.788;21.582;2024-01-15T10:26:24;97586.79;;;0.72;100.00
51530;BME280;37613;51.788;21.582;2024-01-15T10:30:30;97588.04;;;0.70;100.00
51530;BME280;37613;51.788;21.582;2024-01-15T10:34:33;97584.76;;;0.70;100.00
51530;BME280;37613;51.788;21.582;2024-01-15T10:38:36;97577.12;;;0.75;100.00
51530;BME280;37613;51.788;21.582;2024-01-15T10:42:38;97576.71;;;0.80;100.00
51530;BME280;37613;51.788;21.582;2024-01-15T10:46:40;97573.71;;;0.94;100.00
51530;BME280;37613;51.788;21.582;2024-01-15T10:50:44;97566.20;;;1.04;100.00
51530;BME280;37613;51.788;21.582;2024-01-15T10:54:47;97566.89;;;1.10;100.00
51530;BME280;37613;51.788;21.582;2024-01-15T10:58:52;97564.11;;;1.04;99.82
51530;BME280;37613;51.788;21.582;2024-01-15T11:02:56;97567.41;;;0.95;99.67
51530;BME280;37613;51.788;21.582;2024-01-15T11:06:59;97571.17;;;0.87;99.69
51530;BME280;37613;51.788;21.582;2024-01-15T11:11:01;97568.95;;;0.78;99.58
51530;BME280;37613;51.788;21.582;2024-01-15T11:15:04;97570.67;;;0.74;99.80
51530;BME280;37613;51.788;21.582;2024-01-15T11:19:06;97574.34;;;0.73;99.77
51530;BME280;37613;51.788;21.582;2024-01-15T11:23:09;97571.06;;;0.70;98.56
51530;BME280;37613;51.788;21.582;2024-01-15T11:27:12;97564.22;;;0.69;98.45
51530;BME280;37613;51.788;21.582;2024-01-15T11:31:13;97562.84;;;0.67;97.75
51530;BME280;37613;51.788;21.582;2024-01-15T11:35:17;97556.84;;;0.71;98.95
51530;BME280;37613;51.788;21.582;2024-01-15T11:43:28;97552.84;;;0.80;97.61
51530;BME280;37613;51.788;21.582;2024-01-15T11:48:15;97547.83;;;0.90;95.79
51530;BME280;37613;51.788;21.582;2024-01-15T11:52:21;97544.39;;;0.95;95.11
51530;BME280;37613;51.788;21.582;2024-01-15T11:56:23;97548.48;;;1.00;94.37
51530;BME280;37613;51.788;21.582;2024-01-15T12:00:26;97552.59;;;1.05;95.47
51530;BME280;37613;51.788;21.582;2024-01-15T12:04:28;97553.04;;;1.08;93.72
51530;BME280;37613;51.788;21.582;2024-01-15T12:08:30;97545.27;;;1.06;94.55
51530;BME280;37613;51.788;21.582;2024-01-15T12:16:54;97556.02;;;1.01;93.77
51530;BME280;37613;51.788;21.582;2024-01-15T12:20:57;97554.48;;;0.97;93.68
51530;BME280;37613;51.788;21.582;2024-01-15T12:25:00;97559.34;;;0.90;93.68
51530;BME280;37613;51.788;21.582;2024-01-15T12:29:02;97560.60;;;0.85;94.68
51530;BME280;37613;51.788;21.582;2024-01-15T12:33:05;97561.71;;;0.79;94.57
51530;BME280;37613;51.788;21.582;2024-01-15T12:37:07;97562.76;;;0.72;94.02
51530;BME280;37613;51.788;21.582;2024-01-15T12:41:10;97558.00;;;0.69;93.91
51530;BME280;37613;51.788;21.582;2024-01-15T12:45:12;97558.86;;;0.68;94.83
51530;BME280;37613;51.788;21.582;2024-01-15T12:49:15;97558.80;;;0.65;94.92
51530;BME280;37613;51.788;21.582;2024-01-15T12:53:17;97560.29;;;0.61;95.06
51530;BME280;37613;51.788;21.582;2024-01-15T12:57:19;97571.59;;;0.49;96.25
51530;BME280;37613;51.788;21.582;2024-01-15T13:01:21;97572.85;;;0.36;97.33
51530;BME280;37613;51.788;21.582;2024-01-15T13:05:24;97566.26;;;0.29;98.09
51530;BME280;37613;51.788;21.582;2024-01-15T13:09:28;97564.33;;;0.25;98.39
51530;BME280;37613;51.788;21.582;2024-01-15T13:13:31;97561.60;;;0.24;98.06
51530;BME280;37613;51.788;21.582;2024-01-15T13:17:36;97556.64;;;0.25;97.98
51530;BME280;37613;51.788;21.582;2024-01-15T13:21:38;97553.84;;;0.26;98.02
51530;BME280;37613;51.788;21.582;2024-01-15T13:25:40;97551.42;;;0.25;98.22
51530;BME280;37613;51.788;21.582;2024-01-15T13:29:42;97550.25;;;0.20;98.28
51530;BME280;37613;51.788;21.582;2024-01-15T13:33:45;97544.36;;;0.14;98.55
51530;BME280;37613;51.788;21.582;2024-01-15T13:37:46;97544.61;;;0.08;99.57
51530;BME280;37613;51.788;21.582;2024-01-15T13:41:49;97546.09;;;-0.03;100.00
51530;BME280;37613;51.788;21.582;2024-01-15T13:45:51;97550.73;;;-0.10;100.00
51530;BME280;37613;51.788;21.582;2024-01-15T13:49:54;97552.14;;;-0.16;100.00
51530;BME280;37613;51.788;21.582;2024-01-15T13:53:57;97550.89;;;-0.17;100.00
51530;BME280;37613;51.788;21.582;2024-01-15T13:57:59;97563.31;;;-0.18;100.00
51530;BME280;37613;51.788;21.582;2024-01-15T14:02:00;97569.61;;;-0.17;100.00
51530;BME280;37613;51.788;21.582;2024-01-15T14:06:02;97575.68;;;-0.15;100.00
51530;BME280;37613;51.788;21.582;2024-01-15T14:10:06;97576.77;;;-0.11;100.00
51530;BME280;37613;51.788;21.582;2024-01-15T14:14:09;97576.07;;;-0.07;100.00
51530;BME280;37613;51.788;21.582;2024-01-15T14:18:11;97577.86;;;-0.07;99.93
51530;BME280;37613;51.788;21.582;2024-01-15T14:22:14;97581.73;;;-0.11;99.85
51530;BME280;37613;51.788;21.582;2024-01-15T14:26:15;97580.97;;;-0.08;99.98
51530;BME280;37613;51.788;21.582;2024-01-15T14:30:17;97579.88;;;-0.13;99.95
51530;BME280;37613;51.788;21.582;2024-01-15T14:34:19;97581.80;;;-0.21;99.74
51530;BME280;37613;51.788;21.582;2024-01-15T14:38:23;97587.38;;;-0.24;99.87
51530;BME280;37613;51.788;21.582;2024-01-15T14:42:25;97584.75;;;-0.28;99.80
51530;BME280;37613;51.788;21.582;2024-01-15T14:46:27;97583.65;;;-0.31;99.78
51530;BME280;37613;51.788;21.582;2024-01-15T14:50:29;97586.67;;;-0.33;99.58
51530;BME280;37613;51.788;21.582;2024-01-15T14:54:31;97587.84;;;-0.35;99.57
51530;BME280;37613;51.788;21.582;2024-01-15T14:58:33;97596.38;;;-0.35;99.56
51530;BME280;37613;51.788;21.582;2024-01-15T15:02:35;97601.19;;;-0.37;99.23
51530;BME280;37613;51.788;21.582;2024-01-15T15:06:37;97600.86;;;-0.40;99.29
51530;BME280;37613;51.788;21.582;2024-01-15T15:10:39;97600.47;;;-0.44;99.34
51530;BME280;37613;51.788;21.582;2024-01-15T15:14:42;97607.52;;;-0.48;99.48
51530;BME280;37613;51.788;21.582;2024-01-15T15:18:44;97608.45;;;-0.48;99.53
51530;BME280;37613;51.788;21.582;2024-01-15T15:22:47;97606.90;;;-0.48;99.65
51530;BME280;37613;51.788;21.582;2024-01-15T15:26:49;97594.88;;;-0.47;99.51
51530;BME280;37613;51.788;21.582;2024-01-15T15:30:51;97596.20;;;-0.51;99.30
51530;BME280;37613;51.788;21.582;2024-01-15T15:34:54;97598.91;;;-0.51;99.22
51530;BME280;37613;51.788;21.582;2024-01-15T15:38:56;97598.83;;;-0.50;98.79
51530;BME280;37613;51.788;21.582;2024-01-15T15:42:59;97602.70;;;-0.50;99.07
51530;BME280;37613;51.788;21.582;2024-01-15T15:47:01;97596.73;;;-0.52;98.27
51530;BME280;37613;51.788;21.582;2024-01-15T15:51:03;97592.78;;;-0.53;98.22
51530;BME280;37613;51.788;21.582;2024-01-15T15:55:05;97592.61;;;-0.54;98.42
51530;BME280;37613;51.788;21.582;2024-01-15T15:59:09;97592.15;;;-0.53;98.15
51530;BME280;37613;51.788;21.582;2024-01-15T16:03:11;97594.33;;;-0.51;98.15
51530;BME280;37613;51.788;21.582;2024-01-15T16:07:13;97586.10;;;-0.52;97.66
51530;BME280;37613;51.788;21.582;2024-01-15T16:11:16;97591.77;;;-0.52;97.40
51530;BME280;37613;51.788;21.582;2024-01-15T16:15:21;97592.86;;;-0.51;96.16
51530;BME280;37613;51.788;21.582;2024-01-15T16:19:24;97590.14;;;-0.48;96.56
51530;BME280;37613;51.788;21.582;2024-01-15T16:23:26;97584.79;;;-0.47;95.48
51530;BME280;37613;51.788;21.582;2024-01-15T16:27:28;97576.80;;;-0.44;95.08
51530;BME280;37613;51.788;21.582;2024-01-15T16:31:30;97573.31;;;-0.41;94.74
51530;BME280;37613;51.788;21.582;2024-01-15T16:35:33;97576.72;;;-0.41;94.01
51530;BME280;37613;51.788;21.582;2024-01-15T16:39:35;97575.11;;;-0.38;94.50
51530;BME280;37613;51.788;21.582;2024-01-15T16:43:37;97572.24;;;-0.37;94.01
51530;BME280;37613;51.788;21.582;2024-01-15T16:47:39;97573.87;;;-0.36;94.14
51530;BME280;37613;51.788;21.582;2024-01-15T16:51:41;97577.36;;;-0.38;93.32
51530;BME280;37613;51.788;21.582;2024-01-15T16:55:42;97575.95;;;-0.42;92.89
51530;BME280;37613;51.788;21.582;2024-01-15T16:59:46;97576.16;;;-0.47;92.81
51530;BME280;37613;51.788;21.582;2024-01-15T17:03:48;97576.02;;;-0.50;92.75
51530;BME280;37613;51.788;21.582;2024-01-15T17:07:50;97573.05;;;-0.53;92.23
51530;BME280;37613;51.788;21.582;2024-01-15T17:11:52;97575.61;;;-0.56;92.45
51530;BME280;37613;51.788;21.582;2024-01-15T17:15:54;97577.94;;;-0.59;92.69
51530;BME280;37613;51.788;21.582;2024-01-15T17:19:56;97576.70;;;-0.61;93.09
51530;BME280;37613;51.788;21.582;2024-01-15T17:23:58;97582.13;;;-0.62;93.11
51530;BME280;37613;51.788;21.582;2024-01-15T17:28:00;97579.64;;;-0.62;93.34
51530;BME280;37613;51.788;21.582;2024-01-15T17:32:03;97584.30;;;-0.62;93.45
51530;BME280;37613;51.788;21.582;2024-01-15T17:36:05;97583.99;;;-0.62;93.46
51530;BME280;37613;51.788;21.582;2024-01-15T17:40:08;97583.30;;;-0.62;93.59
51530;BME280;37613;51.788;21.582;2024-01-15T17:44:12;97584.30;;;-0.61;93.48
51530;BME280;37613;51.788;21.582;2024-01-15T17:48:14;97587.88;;;-0.60;93.44
51530;BME280;37613;51.788;21.582;2024-01-15T17:52:16;97590.59;;;-0.60;93.29
51530;BME280;37613;51.788;21.582;2024-01-15T17:56:19;97600.98;;;-0.60;93.45
51530;BME280;37613;51.788;21.582;2024-01-15T18:00:21;97602.30;;;-0.61;93.58
51530;BME280;37613;51.788;21.582;2024-01-15T18:04:23;97600.05;;;-0.62;94.00
51530;BME280;37613;51.788;21.582;2024-01-15T18:08:25;97601.13;;;-0.63;94.18
51530;BME280;37613;51.788;21.582;2024-01-15T18:12:27;97596.02;;;-0.62;93.96
51530;BME280;37613;51.788;21.582;2024-01-15T18:16:29;97597.58;;;-0.61;93.69
51530;BME280;37613;51.788;21.582;2024-01-15T18:20:31;97595.01;;;-0.59;94.11
51530;BME280;37613;51.788;21.582;2024-01-15T18:24:35;97588.73;;;-0.57;94.13
51530;BME280;37613;51.788;21.582;2024-01-15T18:28:36;97584.54;;;-0.58;94.32
51530;BME280;37613;51.788;21.582;2024-01-15T18:32:39;97585.63;;;-0.59;94.35
51530;BME280;37613;51.788;21.582;2024-01-15T18:36:42;97588.10;;;-0.58;94.93
51530;BME280;37613;51.788;21.582;2024-01-15T18:40:48;97584.91;;;-0.57;95.29
51530;BME280;37613;51.788;21.582;2024-01-15T18:44:50;97584.15;;;-0.60;95.16
51530;BME280;37613;51.788;21.582;2024-01-15T18:48:53;97575.20;;;-0.64;95.30
51530;BME280;37613;51.788;21.582;2024-01-15T18:52:55;97574.42;;;-0.68;95.48
51530;BME280;37613;51.788;21.582;2024-01-15T18:56:57;97576.51;;;-0.72;95.90
51530;BME280;37613;51.788;21.582;2024-01-15T19:00:59;97581.70;;;-0.74;96.18
51530;BME280;37613;51.788;21.582;2024-01-15T19:05:01;97585.04;;;-0.75;96.42
51530;BME280;37613;51.788;21.582;2024-01-15T19:09:03;97582.40;;;-0.74;96.46
51530;BME280;37613;51.788;21.582;2024-01-15T19:13:05;97581.39;;;-0.71;96.33
51530;BME280;37613;51.788;21.582;2024-01-15T19:17:08;97585.36;;;-0.68;96.12
51530;BME280;37613;51.788;21.582;2024-01-15T19:21:10;97584.83;;;-0.67;95.95
51530;BME280;37613;51.788;21.582;2024-01-15T19:25:12;97590.02;;;-0.67;95.66
51530;BME280;37613;51.788;21.582;2024-01-15T19:29:14;97591.11;;;-0.67;95.71
51530;BME280;37613;51.788;21.582;2024-01-15T19:33:17;97590.41;;;-0.67;95.67
51530;BME280;37613;51.788;21.582;2024-01-15T19:37:19;97591.19;;;-0.68;95.72
51530;BME280;37613;51.788;21.582;2024-01-15T19:41:21;97589.88;;;-0.69;96.09
51530;BME280;37613;51.788;21.582;2024-01-15T19:45:23;97593.98;;;-0.69;96.21
51530;BME280;37613;51.788;21.582;2024-01-15T19:49:25;97600.17;;;-0.73;96.47
51530;BME280;37613;51.788;21.582;2024-01-15T19:53:27;97611.34;;;-0.75;96.75
51530;BME280;37613;51.788;21.582;2024-01-15T19:57:29;97642.17;;;-0.79;97.88
51530;BME280;37613;51.788;21.582;2024-01-15T20:01:32;97675.20;;;-0.88;99.69
51530;BME280;37613;51.788;21.582;2024-01-15T20:05:34;97683.30;;;-1.08;100.00
51530;BME280;37613;51.788;21.582;2024-01-15T20:09:36;97688.66;;;-1.31;100.00
51530;BME280;37613;51.788;21.582;2024-01-15T20:13:38;97681.44;;;-1.45;100.00
51530;BME280;37613;51.788;21.582;2024-01-15T20:17:41;97680.65;;;-1.56;100.00
51530;BME280;37613;51.788;21.582;2024-01-15T20:21:43;97684.06;;;-1.67;100.00
51530;BME280;37613;51.788;21.582;2024-01-15T20:25:46;97695.13;;;-1.78;100.00
51530;BME280;37613;51.788;21.582;2024-01-15T20:29:48;97696.89;;;-1.87;100.00
51530;BME280;37613;51.788;21.582;2024-01-15T20:33:50;97703.63;;;-1.95;100.00
51530;BME280;37613;51.788;21.582;2024-01-15T20:37:52;97711.80;;;-2.00;100.00
51530;BME280;37613;51.788;21.582;2024-01-15T20:41:57;97717.96;;;-2.03;100.00
51530;BME280;37613;51.788;21.582;2024-01-15T20:46:00;97724.05;;;-2.05;100.00
51530;BME280;37613;51.788;21.582;2024-01-15T20:50:02;97732.10;;;-2.04;100.00
51530;BME280;37613;51.788;21.582;2024-01-15T20:54:04;97728.73;;;-2.03;100.00
51530;BME280;37613;51.788;21.582;2024-01-15T20:58:09;97728.12;;;-2.02;100.00
51530;BME280;37613;51.788;21.582;2024-01-15T21:02:11;97728.60;;;-2.00;100.00
51530;BME280;37613;51.788;21.582;2024-01-15T21:06:13;97730.85;;;-1.99;100.00
51530;BME280;37613;51.788;21.582;2024-01-15T21:10:15;97734.05;;;-1.96;100.00